| Date | Time | Temp. (oF) | Dew Point (oF) | Rel. Hum. (%) | Press. (in.) | Wind Dir. (deg.) | Wind Speed (mph) | Hourly Rainfall (i n.) |
|
|---|---|---|---|---|---|---|---|---|---|
| 1 | 08/06 | 24:00 | 72 | 55 | 57 | 30.14 | 10 | 0 | 0.00 |
| 2 | 08/05 | 23:00 | 74 | 55 | 52 | 30.16 | 10 | 0 | 0.00 |
| 3 | 08/05 | 22:00 | 75 | 52 | 45 | 30.13 | 10 | 0 | 0.00 |
| 4 | 08/05 | 21:00 | 78 | 50 | 39 | 30.06 | 290 | 1 | 0.00 |
| 5 | 08/05 | 20:00 | 81 | 52 | 37 | 30.05 | 330 | 2 | 0.00 |
| 6 | 08/05 | 19:00 | 84 | 52 | 34 | 30.05 | 290 | 7 | 0.00 |
| 7 | 08/05 | 18:00 | 85 | 51 | 32 | 30.05 | 310 | 6 | 0.00 |
| 8 | 08/05 | 17:00 | 86 | 51 | 31 | 30.04 | 310 | 4 | 0.00 |
| 9 | 08/05 | 16:00 | 87 | 54 | 33 | 30.02 | 350 | 7 | 0.00 |
| 10 | 08/05 | 15:00 | 86 | 56 | 37 | 30.02 | 290 | 7 | 0.00 |
| 11 | 08/05 | 14:00 | 86 | 59 | 42 | 30.02 | 290 | 2 | 0.00 |
| 12 | 08/05 | 13:00 | 85 | 59 | 43 | 30.03 | 260 | 9 | 0.00 |
| 13 | 08/05 | 12:00 | 84 | 59 | 44 | 30.02 | 330 | 9 | 0.00 |
| 14 | 08/05 | 11:00 | 83 | 59 | 46 | 30.03 | 270 | 2 | 0.00 |
| 15 | 08/05 | 10:00 | 78 | 59 | 53 | 30.02 | 290 | 9 | 0.00 |
| 16 | 08/05 | 09:00 | 75 | 60 | 60 | 30.02 | 260 | 2 | 0.00 |
| 17 | 08/05 | 08:00 | 72 | 62 | 71 | 30.03 | 170 | 1 | 0.00 |
| 18 | 08/05 | 07:00 | 67 | 60 | 81 | 30.02 | 170 | 0 | 0.00 |
| 19 | 08/05 | 06:00 | 70 | 60 | 72 | 30.05 | 170 | 1 | 0.00 |
| 20 | 08/05 | 05:00 | 71 | 60 | 70 | 30.00 | 170 | 0 | 0.00 |
| 21 | 08/05 | 04:00 | 72 | 60 | 67 | 30.00 | 170 | 0 | 0.00 |
| 22 | 08/05 | 03:00 | 73 | 60 | 65 | 30.01 | 170 | 0 | 0.00 |
| 23 | 08/05 | 02:00 | 75 | 60 | 60 | 30.02 | 170 | 0 | 0.00 |
| 24 | 08/05 | 01:00 | 77 | 58 | 54 | 30.04 | 170 | 0 | 0.00 |